Terminal Aerodrome Forecast
Issued by NWS

Home | Current Version | Previous Version | Graphics & Text | Print | Product List | Glossary On
Versions: 1 2 3 4 5 6 7 8 9 10 11 12 13 14 15 16 17 18 19 20 21 22 23 24 25 26 27 28 29 30 31 32 33 34 35 36
000
FTUS43 KGRB 301510 AAA
TAFRHI
TAF AMD
KRHI 301510Z 3015/3112 23006KT 6SM BR BKN004
      TEMPO 3016/3018 P6SM NSW BKN008
     FM301800 21009KT P6SM BKN012
     FM302000 21009KT P6SM SCT020
     FM302300 21003KT P6SM SKC
     FM310700 22003KT 2SM BR BKN003=

USA.gov is the U.S. government's official web portal to all federal, state and local government web resources and services.